sensor_id;sensor_type;location;lat;lon;timestamp;pressure;altitude;pressure_sealevel;temperature;humidity
23899;BME280;20544;50.018;20.010;2022-09-09T00:01:54;98431.70;;;18.58;100.00
23899;BME280;20544;50.018;20.010;2022-09-09T00:05:17;98442.91;;;18.55;100.00
23899;BME280;20544;50.018;20.010;2022-09-09T00:08:41;98433.80;;;18.56;100.00
23899;BME280;20544;50.018;20.010;2022-09-09T00:12:04;98436.41;;;18.51;100.00
23899;BME280;20544;50.018;20.010;2022-09-09T00:15:25;98440.72;;;18.52;100.00
23899;BME280;20544;50.018;20.010;2022-09-09T00:18:49;98427.80;;;18.49;100.00
23899;BME280;20544;50.018;20.010;2022-09-09T00:22:16;98427.55;;;18.51;100.00
23899;BME280;20544;50.018;20.010;2022-09-09T00:25:37;98427.30;;;18.52;100.00
23899;BME280;20544;50.018;20.010;2022-09-09T00:29:04;98442.60;;;18.52;100.00
23899;BME280;20544;50.018;20.010;2022-09-09T00:32:24;98436.06;;;18.48;100.00
23899;BME280;20544;50.018;20.010;2022-09-09T00:35:44;98433.63;;;18.46;100.00
23899;BME280;20544;50.018;20.010;2022-09-09T00:39:02;98430.95;;;18.46;100.00
23899;BME280;20544;50.018;20.010;2022-09-09T00:42:23;98432.58;;;18.47;100.00
23899;BME280;20544;50.018;20.010;2022-09-09T00:45:54;98440.63;;;18.47;100.00
23899;BME280;20544;50.018;20.010;2022-09-09T00:49:34;98445.67;;;18.43;100.00
23899;BME280;20544;50.018;20.010;2022-09-09T00:53:01;98448.82;;;18.40;100.00
23899;BME280;20544;50.018;20.010;2022-09-09T00:56:25;98452.92;;;18.43;100.00
23899;BME280;20544;50.018;20.010;2022-09-09T00:59:48;98456.66;;;18.42;100.00
23899;BME280;20544;50.018;20.010;2022-09-09T01:03:21;98459.00;;;18.38;100.00
23899;BME280;20544;50.018;20.010;2022-09-09T01:06:40;98456.45;;;18.32;100.00
23899;BME280;20544;50.018;20.010;2022-09-09T01:10:00;98457.53;;;18.31;100.00
23899;BME280;20544;50.018;20.010;2022-09-09T01:13:26;98454.84;;;18.31;100.00
23899;BME280;20544;50.018;20.010;2022-09-09T01:16:46;98462.65;;;18.32;100.00
23899;BME280;20544;50.018;20.010;2022-09-09T01:20:12;98474.44;;;18.31;100.00
23899;BME280;20544;50.018;20.010;2022-09-09T01:24:00;98471.75;;;18.31;100.00
23899;BME280;20544;50.018;20.010;2022-09-09T01:27:23;98467.92;;;18.27;100.00
23899;BME280;20544;50.018;20.010;2022-09-09T01:30:42;98479.13;;;18.24;100.00
23899;BME280;20544;50.018;20.010;2022-09-09T01:34:00;98496.28;;;18.23;100.00
23899;BME280;20544;50.018;20.010;2022-09-09T01:37:20;98493.84;;;18.21;100.00
23899;BME280;20544;50.018;20.010;2022-09-09T01:40:36;98502.14;;;18.20;100.00
23899;BME280;20544;50.018;20.010;2022-09-09T01:43:55;98494.89;;;18.20;100.00
23899;BME280;20544;50.018;20.010;2022-09-09T01:47:13;98501.30;;;18.19;100.00
23899;BME280;20544;50.018;20.010;2022-09-09T01:50:44;98506.58;;;18.14;100.00
23899;BME280;20544;50.018;20.010;2022-09-09T01:54:00;98508.70;;;18.12;100.00
23899;BME280;20544;50.018;20.010;2022-09-09T01:57:20;98506.48;;;18.09;100.00
23899;BME280;20544;50.018;20.010;2022-09-09T02:00:41;98502.74;;;18.10;100.00
23899;BME280;20544;50.018;20.010;2022-09-09T02:04:07;98508.81;;;18.05;100.00
23899;BME280;20544;50.018;20.010;2022-09-09T02:07:35;98502.30;;;18.01;100.00
23899;BME280;20544;50.018;20.010;2022-09-09T02:10:58;98513.73;;;17.97;100.00
23899;BME280;20544;50.018;20.010;2022-09-09T02:14:22;98513.17;;;17.94;100.00
23899;BME280;20544;50.018;20.010;2022-09-09T02:17:43;98522.34;;;17.87;100.00
23899;BME280;20544;50.018;20.010;2022-09-09T02:21:01;98528.20;;;17.84;100.00
23899;BME280;20544;50.018;20.010;2022-09-09T02:24:24;98526.70;;;17.76;100.00
23899;BME280;20544;50.018;20.010;2022-09-09T02:27:56;98531.95;;;17.71;100.00
23899;BME280;20544;50.018;20.010;2022-09-09T02:31:19;98536.86;;;17.62;100.00
23899;BME280;20544;50.018;20.010;2022-09-09T02:34:42;98545.11;;;17.60;100.00
23899;BME280;20544;50.018;20.010;2022-09-09T02:38:03;98544.20;;;17.55;100.00
23899;BME280;20544;50.018;20.010;2022-09-09T02:41:26;98552.13;;;17.50;100.00
23899;BME280;20544;50.018;20.010;2022-09-09T02:44:45;98552.81;;;17.45;100.00
23899;BME280;20544;50.018;20.010;2022-09-09T02:48:07;98545.70;;;17.39;100.00
23899;BME280;20544;50.018;20.010;2022-09-09T02:51:32;98554.07;;;17.30;100.00
23899;BME280;20544;50.018;20.010;2022-09-09T02:54:59;98553.86;;;17.32;100.00
23899;BME280;20544;50.018;20.010;2022-09-09T02:58:21;98570.51;;;17.34;100.00
23899;BME280;20544;50.018;20.010;2022-09-09T03:01:41;98562.47;;;17.34;100.00
23899;BME280;20544;50.018;20.010;2022-09-09T03:05:00;98563.52;;;17.33;100.00
23899;BME280;20544;50.018;20.010;2022-09-09T03:08:17;98574.11;;;17.28;100.00
23899;BME280;20544;50.018;20.010;2022-09-09T03:11:40;98569.44;;;17.23;100.00
23899;BME280;20544;50.018;20.010;2022-09-09T03:15:01;98568.51;;;17.18;100.00
23899;BME280;20544;50.018;20.010;2022-09-09T03:18:20;98575.59;;;17.12;100.00
23899;BME280;20544;50.018;20.010;2022-09-09T03:21:37;98566.03;;;17.04;100.00
23899;BME280;20544;50.018;20.010;2022-09-09T03:25:00;98564.98;;;17.05;100.00
23899;BME280;20544;50.018;20.010;2022-09-09T03:28:17;98571.38;;;17.04;100.00
23899;BME280;20544;50.018;20.010;2022-09-09T03:31:35;98569.05;;;16.96;100.00
23899;BME280;20544;50.018;20.010;2022-09-09T03:34:52;98565.09;;;16.98;100.00
23899;BME280;20544;50.018;20.010;2022-09-09T03:38:08;98565.54;;;16.95;100.00
23899;BME280;20544;50.018;20.010;2022-09-09T03:41:26;98570.89;;;16.95;100.00
23899;BME280;20544;50.018;20.010;2022-09-09T03:44:43;98572.97;;;16.93;100.00
23899;BME280;20544;50.018;20.010;2022-09-09T03:48:02;98580.09;;;17.00;100.00
23899;BME280;20544;50.018;20.010;2022-09-09T03:51:22;98579.42;;;17.04;100.00
23899;BME280;20544;50.018;20.010;2022-09-09T03:54:42;98585.02;;;17.03;100.00
23899;BME280;20544;50.018;20.010;2022-09-09T03:57:59;98589.91;;;17.06;100.00
23899;BME280;20544;50.018;20.010;2022-09-09T04:01:16;98584.55;;;17.06;100.00
23899;BME280;20544;50.018;20.010;2022-09-09T04:04:32;98590.61;;;17.01;100.00
23899;BME280;20544;50.018;20.010;2022-09-09T04:07:49;98594.09;;;17.02;100.00
23899;BME280;20544;50.018;20.010;2022-09-09T04:11:06;98594.33;;;17.00;100.00
23899;BME280;20544;50.018;20.010;2022-09-09T04:14:24;98590.24;;;16.97;100.00
23899;BME280;20544;50.018;20.010;2022-09-09T04:17:43;98590.29;;;16.91;100.00
23899;BME280;20544;50.018;20.010;2022-09-09T04:21:00;98584.80;;;16.86;100.00
23899;BME280;20544;50.018;20.010;2022-09-09T04:24:19;98597.75;;;16.89;100.00
23899;BME280;20544;50.018;20.010;2022-09-09T04:27:39;98589.35;;;16.85;100.00
23899;BME280;20544;50.018;20.010;2022-09-09T04:31:03;98589.59;;;16.84;100.00
23899;BME280;20544;50.018;20.010;2022-09-09T04:34:20;98586.98;;;16.77;100.00
23899;BME280;20544;50.018;20.010;2022-09-09T04:37:37;98591.53;;;16.76;100.00
23899;BME280;20544;50.018;20.010;2022-09-09T04:40:59;98590.70;;;16.76;100.00
23899;BME280;20544;50.018;20.010;2022-09-09T04:44:17;98595.02;;;16.77;100.00
23899;BME280;20544;50.018;20.010;2022-09-09T04:47:34;98593.55;;;16.81;100.00
23899;BME280;20544;50.018;20.010;2022-09-09T04:50:57;98595.62;;;16.79;100.00
23899;BME280;20544;50.018;20.010;2022-09-09T04:54:16;98595.62;;;16.79;100.00
23899;BME280;20544;50.018;20.010;2022-09-09T04:57:34;98602.14;;;16.83;100.00
23899;BME280;20544;50.018;20.010;2022-09-09T05:00:52;98606.46;;;16.84;100.00
23899;BME280;20544;50.018;20.010;2022-09-09T05:04:10;98604.59;;;16.85;100.00
23899;BME280;20544;50.018;20.010;2022-09-09T05:07:26;98608.47;;;16.89;100.00
23899;BME280;20544;50.018;20.010;2022-09-09T05:10:43;98618.51;;;16.93;100.00
23899;BME280;20544;50.018;20.010;2022-09-09T05:13:59;98616.20;;;16.97;100.00
23899;BME280;20544;50.018;20.010;2022-09-09T05:17:16;98617.60;;;17.00;100.00
23899;BME280;20544;50.018;20.010;2022-09-09T05:20:33;98615.52;;;17.02;100.00
23899;BME280;20544;50.018;20.010;2022-09-09T05:23:51;98603.16;;;17.01;100.00
23899;BME280;20544;50.018;20.010;2022-09-09T05:27:08;98611.80;;;17.03;100.00
23899;BME280;20544;50.018;20.010;2022-09-09T05:30:24;98614.01;;;17.06;100.00
23899;BME280;20544;50.018;20.010;2022-09-09T05:33:42;98619.73;;;17.09;100.00
23899;BME280;20544;50.018;20.010;2022-09-09T05:36:58;98615.28;;;17.03;100.00
23899;BME280;20544;50.018;20.010;2022-09-09T05:40:16;98621.92;;;17.01;100.00
23899;BME280;20544;50.018;20.010;2022-09-09T05:43:33;98621.11;;;17.00;100.00
23899;BME280;20544;50.018;20.010;2022-09-09T05:46:49;98616.56;;;17.01;100.00
23899;BME280;20544;50.018;20.010;2022-09-09T05:50:07;98626.23;;;17.02;100.00
23899;BME280;20544;50.018;20.010;2022-09-09T05:53:25;98626.84;;;17.04;100.00
23899;BME280;20544;50.018;20.010;2022-09-09T05:56:43;98629.17;;;17.12;100.00
23899;BME280;20544;50.018;20.010;2022-09-09T06:00:00;98637.13;;;17.19;100.00
23899;BME280;20544;50.018;20.010;2022-09-09T06:03:20;98639.70;;;17.25;100.00
23899;BME280;20544;50.018;20.010;2022-09-09T06:06:37;98638.47;;;17.40;100.00
23899;BME280;20544;50.018;20.010;2022-09-09T06:09:53;98647.00;;;17.49;100.00
23899;BME280;20544;50.018;20.010;2022-09-09T06:13:10;98646.64;;;17.57;100.00
23899;BME280;20544;50.018;20.010;2022-09-09T06:16:28;98653.31;;;17.66;100.00
23899;BME280;20544;50.018;20.010;2022-09-09T06:19:48;98663.69;;;17.74;100.00
23899;BME280;20544;50.018;20.010;2022-09-09T06:23:05;98658.16;;;18.00;100.00
23899;BME280;20544;50.018;20.010;2022-09-09T06:26:23;98661.28;;;18.32;100.00
23899;BME280;20544;50.018;20.010;2022-09-09T06:29:41;98650.95;;;18.65;100.00
23899;BME280;20544;50.018;20.010;2022-09-09T06:32:58;98654.82;;;18.98;100.00
23899;BME280;20544;50.018;20.010;2022-09-09T06:36:27;98655.80;;;19.20;100.00
23899;BME280;20544;50.018;20.010;2022-09-09T06:39:45;98659.27;;;19.67;100.00
23899;BME280;20544;50.018;20.010;2022-09-09T06:43:03;98661.48;;;20.04;100.00
23899;BME280;20544;50.018;20.010;2022-09-09T06:46:26;98665.59;;;20.51;100.00
23899;BME280;20544;50.018;20.010;2022-09-09T06:49:47;98673.37;;;21.14;100.00
23899;BME280;20544;50.018;20.010;2022-09-09T06:53:03;98681.05;;;21.55;100.00
23899;BME280;20544;50.018;20.010;2022-09-09T06:56:23;98670.19;;;21.49;100.00
23899;BME280;20544;50.018;20.010;2022-09-09T06:59:45;98669.13;;;21.50;100.00
23899;BME280;20544;50.018;20.010;2022-09-09T07:03:05;98668.88;;;21.79;100.00
23899;BME280;20544;50.018;20.010;2022-09-09T07:06:24;98669.05;;;22.10;100.00
23899;BME280;20544;50.018;20.010;2022-09-09T07:09:43;98679.34;;;22.56;100.00
23899;BME280;20544;50.018;20.010;2022-09-09T07:13:03;98677.33;;;22.94;100.00
23899;BME280;20544;50.018;20.010;2022-09-09T07:16:21;98686.12;;;23.48;100.00
23899;BME280;20544;50.018;20.010;2022-09-09T07:19:38;98689.63;;;23.85;96.62
23899;BME280;20544;50.018;20.010;2022-09-09T07:22:57;98691.25;;;23.91;96.65
23899;BME280;20544;50.018;20.010;2022-09-09T07:26:16;98685.02;;;24.27;96.99
23899;BME280;20544;50.018;20.010;2022-09-09T07:29:34;98682.30;;;24.27;89.08
23899;BME280;20544;50.018;20.010;2022-09-09T07:32:52;98687.39;;;24.49;90.38
23899;BME280;20544;50.018;20.010;2022-09-09T07:36:15;98688.34;;;24.89;89.45
23899;BME280;20544;50.018;20.010;2022-09-09T07:42:50;98699.13;;;24.99;89.05
23899;BME280;20544;50.018;20.010;2022-09-09T07:46:07;98696.48;;;25.39;85.79
23899;BME280;20544;50.018;20.010;2022-09-09T07:49:24;98705.80;;;25.97;84.06
23899;BME280;20544;50.018;20.010;2022-09-09T07:52:40;98700.40;;;26.26;82.27
23899;BME280;20544;50.018;20.010;2022-09-09T07:56:03;98704.50;;;26.48;78.90
23899;BME280;20544;50.018;20.010;2022-09-09T07:59:24;98708.61;;;26.94;78.92
23899;BME280;20544;50.018;20.010;2022-09-09T08:02:40;98706.66;;;27.19;73.32
23899;BME280;20544;50.018;20.010;2022-09-09T08:06:04;98710.28;;;27.52;74.53
23899;BME280;20544;50.018;20.010;2022-09-09T08:09:23;98713.31;;;27.84;73.05
23899;BME280;20544;50.018;20.010;2022-09-09T08:12:43;98716.01;;;28.03;71.16
23899;BME280;20544;50.018;20.010;2022-09-09T08:16:05;98716.82;;;27.70;68.20
23899;BME280;20544;50.018;20.010;2022-09-09T08:19:23;98719.23;;;27.72;67.13
23899;BME280;20544;50.018;20.010;2022-09-09T08:22:41;98728.80;;;28.21;65.32
23899;BME280;20544;50.018;20.010;2022-09-09T08:26:04;98727.41;;;27.72;63.50
23899;BME280;20544;50.018;20.010;2022-09-09T08:29:23;98733.70;;;28.05;65.75
23899;BME280;20544;50.018;20.010;2022-09-09T08:32:40;98726.93;;;27.84;61.77
23899;BME280;20544;50.018;20.010;2022-09-09T08:35:56;98724.28;;;27.46;64.44
23899;BME280;20544;50.018;20.010;2022-09-09T08:39:14;98725.42;;;27.39;66.24
23899;BME280;20544;50.018;20.010;2022-09-09T08:42:37;98722.97;;;27.00;69.96
23899;BME280;20544;50.018;20.010;2022-09-09T08:46:00;98725.80;;;26.65;70.17
23899;BME280;20544;50.018;20.010;2022-09-09T08:49:29;98727.73;;;26.64;66.67
23899;BME280;20544;50.018;20.010;2022-09-09T08:52:57;98728.00;;;27.31;69.74
23899;BME280;20544;50.018;20.010;2022-09-09T08:56:21;98729.72;;;27.46;67.21
23899;BME280;20544;50.018;20.010;2022-09-09T08:59:38;98728.08;;;27.25;64.48
23899;BME280;20544;50.018;20.010;2022-09-09T09:03:00;98725.47;;;26.96;67.90
23899;BME280;20544;50.018;20.010;2022-09-09T09:06:30;98735.23;;;26.48;67.90
23899;BME280;20544;50.018;20.010;2022-09-09T09:09:57;98732.58;;;26.43;66.76
23899;BME280;20544;50.018;20.010;2022-09-09T09:13:26;98732.06;;;26.66;67.66
23899;BME280;20544;50.018;20.010;2022-09-09T09:16:48;98731.01;;;26.08;71.97
23899;BME280;20544;50.018;20.010;2022-09-09T09:20:14;98732.61;;;25.74;68.78
23899;BME280;20544;50.018;20.010;2022-09-09T09:23:35;98723.30;;;25.46;72.92
23899;BME280;20544;50.018;20.010;2022-09-09T09:26:54;98727.25;;;25.19;76.46
23899;BME280;20544;50.018;20.010;2022-09-09T09:30:18;98733.39;;;24.85;79.92
23899;BME280;20544;50.018;20.010;2022-09-09T09:33:45;98721.00;;;24.48;84.54
23899;BME280;20544;50.018;20.010;2022-09-09T09:37:11;98729.72;;;24.24;79.36
23899;BME280;20544;50.018;20.010;2022-09-09T09:40:31;98722.67;;;24.23;77.25
23899;BME280;20544;50.018;20.010;2022-09-09T09:43:53;98727.00;;;24.29;69.52
23899;BME280;20544;50.018;20.010;2022-09-09T09:47:14;98716.45;;;24.22;71.01
23899;BME280;20544;50.018;20.010;2022-09-09T09:50:39;98718.33;;;23.91;74.15
23899;BME280;20544;50.018;20.010;2022-09-09T09:54:05;98714.56;;;23.71;78.48
23899;BME280;20544;50.018;20.010;2022-09-09T09:57:31;98706.97;;;23.63;78.38
23899;BME280;20544;50.018;20.010;2022-09-09T10:00:53;98713.48;;;23.83;82.58
23899;BME280;20544;50.018;20.010;2022-09-09T10:04:18;98714.28;;;24.19;79.31
23899;BME280;20544;50.018;20.010;2022-09-09T10:07:36;98712.28;;;24.56;71.27
23899;BME280;20544;50.018;20.010;2022-09-09T10:11:21;98704.66;;;24.79;73.37
23899;BME280;20544;50.018;20.010;2022-09-09T10:14:51;98708.52;;;24.52;74.44
23899;BME280;20544;50.018;20.010;2022-09-09T10:22:11;98702.63;;;24.14;81.80
23899;BME280;20544;50.018;20.010;2022-09-09T10:25:40;98698.83;;;23.84;79.76
23899;BME280;20544;50.018;20.010;2022-09-09T10:29:13;98710.23;;;23.70;81.91
23899;BME280;20544;50.018;20.010;2022-09-09T10:32:52;98712.63;;;23.51;83.08
23899;BME280;20544;50.018;20.010;2022-09-09T10:36:13;98709.39;;;23.59;83.54
23899;BME280;20544;50.018;20.010;2022-09-09T10:39:37;98705.29;;;23.31;71.86
23899;BME280;20544;50.018;20.010;2022-09-09T10:42:59;98699.08;;;23.25;82.71
23899;BME280;20544;50.018;20.010;2022-09-09T10:49:47;98701.78;;;23.31;87.31
23899;BME280;20544;50.018;20.010;2022-09-09T10:53:14;98706.44;;;23.77;76.51
23899;BME280;20544;50.018;20.010;2022-09-09T10:56:36;98709.14;;;24.18;74.98
23899;BME280;20544;50.018;20.010;2022-09-09T10:59:55;98707.20;;;24.39;67.48
23899;BME280;20544;50.018;20.010;2022-09-09T11:03:17;98709.67;;;24.15;65.65
23899;BME280;20544;50.018;20.010;2022-09-09T11:06:37;98712.89;;;24.43;68.25
23899;BME280;20544;50.018;20.010;2022-09-09T11:09:59;98709.84;;;24.65;70.60
23899;BME280;20544;50.018;20.010;2022-09-09T11:13:23;98699.76;;;24.81;71.51
23899;BME280;20544;50.018;20.010;2022-09-09T11:16:45;98718.25;;;24.74;63.94
23899;BME280;20544;50.018;20.010;2022-09-09T11:20:10;98713.93;;;24.67;66.89
23899;BME280;20544;50.018;20.010;2022-09-09T11:23:29;98702.56;;;24.55;66.43
23899;BME280;20544;50.018;20.010;2022-09-09T11:26:51;98694.14;;;24.57;73.90
23899;BME280;20544;50.018;20.010;2022-09-09T11:30:20;98695.48;;;24.59;68.22
23899;BME280;20544;50.018;20.010;2022-09-09T11:33:57;98691.91;;;24.79;68.70
23899;BME280;20544;50.018;20.010;2022-09-09T11:37:36;98699.48;;;24.87;65.65
23899;BME280;20544;50.018;20.010;2022-09-09T11:41:08;98699.96;;;25.00;63.75
23899;BME280;20544;50.018;20.010;2022-09-09T11:44:29;98693.20;;;24.97;61.34
23899;BME280;20544;50.018;20.010;2022-09-09T11:47:55;98697.80;;;24.97;62.15
23899;BME280;20544;50.018;20.010;2022-09-09T11:51:25;98700.59;;;24.81;59.53
23899;BME280;20544;50.018;20.010;2022-09-09T11:54:48;98696.48;;;24.89;58.65
23899;BME280;20544;50.018;20.010;2022-09-09T11:58:14;98695.68;;;24.89;60.93
23899;BME280;20544;50.018;20.010;2022-09-09T12:01:36;98699.50;;;24.77;56.61
23899;BME280;20544;50.018;20.010;2022-09-09T12:05:01;98687.83;;;24.82;60.62
23899;BME280;20544;50.018;20.010;2022-09-09T12:08:27;98697.38;;;24.69;55.21
23899;BME280;20544;50.018;20.010;2022-09-09T12:11:44;98703.36;;;24.55;53.13
23899;BME280;20544;50.018;20.010;2022-09-09T12:18:39;98699.02;;;24.54;59.71
23899;BME280;20544;50.018;20.010;2022-09-09T12:22:00;98692.80;;;24.54;63.72
23899;BME280;20544;50.018;20.010;2022-09-09T12:25:23;98692.81;;;24.49;59.88
23899;BME280;20544;50.018;20.010;2022-09-09T12:28:52;98692.05;;;24.33;59.81
23899;BME280;20544;50.018;20.010;2022-09-09T12:32:25;98696.90;;;24.36;62.25
23899;BME280;20544;50.018;20.010;2022-09-09T12:35:56;98688.78;;;24.31;60.00
23899;BME280;20544;50.018;20.010;2022-09-09T12:39:18;98695.27;;;24.35;63.33
23899;BME280;20544;50.018;20.010;2022-09-09T12:42:40;98680.66;;;24.31;62.22
23899;BME280;20544;50.018;20.010;2022-09-09T12:45:59;98692.33;;;24.21;61.36
23899;BME280;20544;50.018;20.010;2022-09-09T12:49:30;98689.64;;;24.11;60.20
23899;BME280;20544;50.018;20.010;2022-09-09T12:52:49;98690.72;;;24.10;59.29
23899;BME280;20544;50.018;20.010;2022-09-09T12:56:17;98692.91;;;23.97;61.24
23899;BME280;20544;50.018;20.010;2022-09-09T12:59:47;98690.20;;;23.92;64.54
23899;BME280;20544;50.018;20.010;2022-09-09T13:03:16;98693.44;;;23.89;64.14
23899;BME280;20544;50.018;20.010;2022-09-09T13:06:34;98686.13;;;23.84;62.55
23899;BME280;20544;50.018;20.010;2022-09-09T13:09:51;98685.30;;;23.84;60.92
23899;BME280;20544;50.018;20.010;2022-09-09T13:13:13;98676.09;;;23.80;60.82
23899;BME280;20544;50.018;20.010;2022-09-09T13:16:32;98667.45;;;23.78;60.01
23899;BME280;20544;50.018;20.010;2022-09-09T13:19:51;98663.92;;;23.77;59.92
23899;BME280;20544;50.018;20.010;2022-09-09T13:23:12;98659.59;;;23.71;60.44
23899;BME280;20544;50.018;20.010;2022-09-09T13:26:28;98669.06;;;23.68;60.02
23899;BME280;20544;50.018;20.010;2022-09-09T13:29:52;98662.58;;;23.69;64.17
23899;BME280;20544;50.018;20.010;2022-09-09T13:33:23;98660.42;;;23.71;67.08
23899;BME280;20544;50.018;20.010;2022-09-09T13:36:46;98669.06;;;23.68;61.48
23899;BME280;20544;50.018;20.010;2022-09-09T13:40:17;98658.52;;;23.72;65.85
23899;BME280;20544;50.018;20.010;2022-09-09T13:43:37;98647.69;;;23.72;61.05
23899;BME280;20544;50.018;20.010;2022-09-09T13:47:17;98653.38;;;23.70;59.60
23899;BME280;20544;50.018;20.010;2022-09-09T13:50:32;98644.98;;;23.72;61.56
23899;BME280;20544;50.018;20.010;2022-09-09T13:53:55;98647.14;;;23.70;68.25
23899;BME280;20544;50.018;20.010;2022-09-09T13:57:20;98640.92;;;23.69;65.86
23899;BME280;20544;50.018;20.010;2022-09-09T14:00:38;98639.58;;;23.67;66.40
23899;BME280;20544;50.018;20.010;2022-09-09T14:03:55;98634.97;;;23.62;73.77
23899;BME280;20544;50.018;20.010;2022-09-09T14:07:13;98636.60;;;23.58;71.96
23899;BME280;20544;50.018;20.010;2022-09-09T14:10:37;98638.20;;;23.54;73.15
23899;BME280;20544;50.018;20.010;2022-09-09T14:13:54;98633.63;;;23.49;74.88
23899;BME280;20544;50.018;20.010;2022-09-09T14:17:10;98629.30;;;23.43;76.05
23899;BME280;20544;50.018;20.010;2022-09-09T14:20:27;98636.86;;;23.36;78.67
23899;BME280;20544;50.018;20.010;2022-09-09T14:23:44;98634.95;;;23.26;83.23
23899;BME280;20544;50.018;20.010;2022-09-09T14:27:01;98629.82;;;23.19;83.25
23899;BME280;20544;50.018;20.010;2022-09-09T14:30:18;98634.67;;;23.17;90.07
23899;BME280;20544;50.018;20.010;2022-09-09T14:33:35;98624.63;;;23.13;85.50
23899;BME280;20544;50.018;20.010;2022-09-09T14:36:52;98627.08;;;23.14;85.47
23899;BME280;20544;50.018;20.010;2022-09-09T14:40:12;98615.74;;;23.17;75.89
23899;BME280;20544;50.018;20.010;2022-09-09T14:43:29;98610.06;;;23.19;73.03
23899;BME280;20544;50.018;20.010;2022-09-09T14:46:47;98604.34;;;23.15;72.08
23899;BME280;20544;50.018;20.010;2022-09-09T14:50:05;98612.45;;;23.15;71.09
23899;BME280;20544;50.018;20.010;2022-09-09T14:53:21;98617.06;;;23.09;73.77
23899;BME280;20544;50.018;20.010;2022-09-09T14:56:38;98608.95;;;23.04;67.10
23899;BME280;20544;50.018;20.010;2022-09-09T14:59:56;98599.73;;;23.00;71.88
23899;BME280;20544;50.018;20.010;2022-09-09T15:03:13;98598.38;;;22.98;74.79
23899;BME280;20544;50.018;20.010;2022-09-09T15:06:33;98613.23;;;22.90;66.32
23899;BME280;20544;50.018;20.010;2022-09-09T15:09:55;98601.06;;;22.87;73.41
23899;BME280;20544;50.018;20.010;2022-09-09T15:13:11;98602.42;;;22.90;69.96
23899;BME280;20544;50.018;20.010;2022-09-09T15:16:29;98608.90;;;22.89;69.22
23899;BME280;20544;50.018;20.010;2022-09-09T15:19:46;98615.66;;;22.86;67.78
23899;BME280;20544;50.018;20.010;2022-09-09T15:23:04;98608.34;;;22.82;66.51
23899;BME280;20544;50.018;20.010;2022-09-09T15:26:21;98602.93;;;22.82;69.89
23899;BME280;20544;50.018;20.010;2022-09-09T15:29:38;98599.42;;;22.76;71.23
23899;BME280;20544;50.018;20.010;2022-09-09T15:32:53;98599.13;;;22.67;68.62
23899;BME280;20544;50.018;20.010;2022-09-09T15:36:18;98598.85;;;22.69;68.80
23899;BME280;20544;50.018;20.010;2022-09-09T15:39:35;98598.04;;;22.63;72.30
23899;BME280;20544;50.018;20.010;2022-09-09T15:42:53;98609.36;;;22.60;80.42
23899;BME280;20544;50.018;20.010;2022-09-09T15:46:27;98610.71;;;22.57;71.44
23899;BME280;20544;50.018;20.010;2022-09-09T15:49:44;98603.15;;;22.54;70.58
23899;BME280;20544;50.018;20.010;2022-09-09T15:53:01;98610.70;;;22.52;70.19
23899;BME280;20544;50.018;20.010;2022-09-09T15:56:18;98606.91;;;22.48;70.36
23899;BME280;20544;50.018;20.010;2022-09-09T15:59:36;98609.05;;;22.46;71.17
23899;BME280;20544;50.018;20.010;2022-09-09T16:02:54;98613.89;;;22.44;71.19
23899;BME280;20544;50.018;20.010;2022-09-09T16:06:12;98613.37;;;22.42;71.26
23899;BME280;20544;50.018;20.010;2022-09-09T16:09:31;98614.44;;;22.41;72.21
23899;BME280;20544;50.018;20.010;2022-09-09T16:12:49;98610.59;;;22.37;74.97
23899;BME280;20544;50.018;20.010;2022-09-09T16:16:08;98621.13;;;22.33;73.14
23899;BME280;20544;50.018;20.010;2022-09-09T16:19:29;98614.61;;;22.29;72.30
23899;BME280;20544;50.018;20.010;2022-09-09T16:22:47;98611.62;;;22.25;72.59
23899;BME280;20544;50.018;20.010;2022-09-09T16:26:08;98614.76;;;22.07;88.77
23899;BME280;20544;50.018;20.010;2022-09-09T16:29:25;98608.40;;;21.80;95.98
23899;BME280;20544;50.018;20.010;2022-09-09T16:32:42;98609.34;;;21.59;100.00
23899;BME280;20544;50.018;20.010;2022-09-09T16:35:58;98614.02;;;21.41;100.00
23899;BME280;20544;50.018;20.010;2022-09-09T16:39:21;98606.01;;;21.19;100.00
23899;BME280;20544;50.018;20.010;2022-09-09T16:42:38;98605.57;;;21.00;100.00
23899;BME280;20544;50.018;20.010;2022-09-09T16:45:54;98607.29;;;20.84;100.00
23899;BME280;20544;50.018;20.010;2022-09-09T16:49:14;98607.08;;;20.68;100.00
23899;BME280;20544;50.018;20.010;2022-09-09T16:52:33;98598.63;;;20.60;100.00
23899;BME280;20544;50.018;20.010;2022-09-09T16:55:48;98600.09;;;20.45;100.00
23899;BME280;20544;50.018;20.010;2022-09-09T16:59:07;98595.08;;;20.32;100.00
23899;BME280;20544;50.018;20.010;2022-09-09T17:02:25;98603.03;;;20.22;100.00
23899;BME280;20544;50.018;20.010;2022-09-09T17:05:43;98598.64;;;20.15;100.00
23899;BME280;20544;50.018;20.010;2022-09-09T17:09:01;98598.80;;;20.09;100.00
23899;BME280;20544;50.018;20.010;2022-09-09T17:12:19;98595.73;;;20.00;100.00
23899;BME280;20544;50.018;20.010;2022-09-09T17:15:35;98605.88;;;19.93;100.00
23899;BME280;20544;50.018;20.010;2022-09-09T17:18:57;98593.96;;;19.88;100.00
23899;BME280;20544;50.018;20.010;2022-09-09T17:22:14;98581.72;;;19.81;100.00
23899;BME280;20544;50.018;20.010;2022-09-09T17:25:32;98597.21;;;19.73;100.00
23899;BME280;20544;50.018;20.010;2022-09-09T17:28:48;98595.58;;;19.72;100.00
23899;BME280;20544;50.018;20.010;2022-09-09T17:32:05;98606.59;;;19.71;100.00
23899;BME280;20544;50.018;20.010;2022-09-09T17:35:22;98612.70;;;19.66;100.00
23899;BME280;20544;50.018;20.010;2022-09-09T17:38:39;98619.49;;;19.69;100.00